sensor_id;sensor_type;location;lat;lon;timestamp;P1;durP1;ratioP1;P2;durP2;ratioP2
14554;SDS011;7364;50.870;4.722;2023-06-22T00:00:56;8.03;;;6.70;;
14554;SDS011;7364;50.870;4.722;2023-06-22T00:03:24;7.97;;;6.00;;
14554;SDS011;7364;50.870;4.722;2023-06-22T00:05:52;7.37;;;6.57;;
14554;SDS011;7364;50.870;4.722;2023-06-22T00:08:19;6.20;;;5.57;;
14554;SDS011;7364;50.870;4.722;2023-06-22T00:10:48;8.60;;;6.70;;
14554;SDS011;7364;50.870;4.722;2023-06-22T00:13:16;8.60;;;7.13;;
14554;SDS011;7364;50.870;4.722;2023-06-22T00:15:43;9.03;;;6.30;;
14554;SDS011;7364;50.870;4.722;2023-06-22T00:18:11;8.50;;;6.53;;
14554;SDS011;7364;50.870;4.722;2023-06-22T00:20:39;8.17;;;6.43;;
14554;SDS011;7364;50.870;4.722;2023-06-22T00:23:06;7.00;;;6.00;;
14554;SDS011;7364;50.870;4.722;2023-06-22T00:25:34;6.97;;;6.37;;
14554;SDS011;7364;50.870;4.722;2023-06-22T00:28:05;7.50;;;6.70;;
14554;SDS011;7364;50.870;4.722;2023-06-22T00:30:33;7.07;;;6.33;;
14554;SDS011;7364;50.870;4.722;2023-06-22T00:33:01;8.53;;;7.27;;
14554;SDS011;7364;50.870;4.722;2023-06-22T00:35:28;9.10;;;6.00;;
14554;SDS011;7364;50.870;4.722;2023-06-22T00:37:55;7.77;;;6.23;;
14554;SDS011;7364;50.870;4.722;2023-06-22T00:40:27;7.97;;;6.03;;
14554;SDS011;7364;50.870;4.722;2023-06-22T00:42:54;6.80;;;6.10;;
14554;SDS011;7364;50.870;4.722;2023-06-22T00:45:23;6.63;;;5.63;;
14554;SDS011;7364;50.870;4.722;2023-06-22T00:47:51;7.70;;;5.07;;
14554;SDS011;7364;50.870;4.722;2023-06-22T00:50:20;6.47;;;5.67;;
14554;SDS011;7364;50.870;4.722;2023-06-22T00:52:48;6.60;;;5.17;;
14554;SDS011;7364;50.870;4.722;2023-06-22T00:55:18;9.43;;;5.17;;
14554;SDS011;7364;50.870;4.722;2023-06-22T00:57:46;6.77;;;5.43;;
14554;SDS011;7364;50.870;4.722;2023-06-22T01:00:14;8.97;;;5.97;;
14554;SDS011;7364;50.870;4.722;2023-06-22T01:02:46;6.47;;;5.73;;
14554;SDS011;7364;50.870;4.722;2023-06-22T01:05:17;7.27;;;6.00;;
14554;SDS011;7364;50.870;4.722;2023-06-22T01:07:48;8.77;;;6.30;;
14554;SDS011;7364;50.870;4.722;2023-06-22T01:10:28;7.10;;;5.93;;
14554;SDS011;7364;50.870;4.722;2023-06-22T01:13:04;7.20;;;6.10;;
14554;SDS011;7364;50.870;4.722;2023-06-22T01:15:36;7.37;;;6.07;;
14554;SDS011;7364;50.870;4.722;2023-06-22T01:18:10;7.43;;;5.33;;
14554;SDS011;7364;50.870;4.722;2023-06-22T01:20:39;7.33;;;5.57;;
14554;SDS011;7364;50.870;4.722;2023-06-22T01:23:10;8.73;;;6.57;;
14554;SDS011;7364;50.870;4.722;2023-06-22T01:25:48;8.17;;;6.73;;
14554;SDS011;7364;50.870;4.722;2023-06-22T01:28:34;9.07;;;7.10;;
14554;SDS011;7364;50.870;4.722;2023-06-22T01:31:08;8.07;;;7.27;;
14554;SDS011;7364;50.870;4.722;2023-06-22T01:33:37;9.90;;;7.70;;
14554;SDS011;7364;50.870;4.722;2023-06-22T01:36:08;8.60;;;7.77;;
14554;SDS011;7364;50.870;4.722;2023-06-22T01:38:36;7.93;;;6.70;;
14554;SDS011;7364;50.870;4.722;2023-06-22T01:41:04;8.67;;;6.77;;
14554;SDS011;7364;50.870;4.722;2023-06-22T01:43:33;8.63;;;6.90;;
14554;SDS011;7364;50.870;4.722;2023-06-22T01:46:02;9.07;;;7.23;;
14554;SDS011;7364;50.870;4.722;2023-06-22T01:48:30;7.33;;;6.47;;
14554;SDS011;7364;50.870;4.722;2023-06-22T01:51:02;12.10;;;7.30;;
14554;SDS011;7364;50.870;4.722;2023-06-22T01:53:32;7.50;;;6.10;;
14554;SDS011;7364;50.870;4.722;2023-06-22T01:56:03;8.70;;;6.87;;
14554;SDS011;7364;50.870;4.722;2023-06-22T01:58:30;8.07;;;6.93;;
14554;SDS011;7364;50.870;4.722;2023-06-22T02:01:02;7.73;;;6.50;;
14554;SDS011;7364;50.870;4.722;2023-06-22T02:03:37;10.37;;;6.87;;
14554;SDS011;7364;50.870;4.722;2023-06-22T02:06:14;8.63;;;6.07;;
14554;SDS011;7364;50.870;4.722;2023-06-22T02:08:49;8.53;;;7.07;;
14554;SDS011;7364;50.870;4.722;2023-06-22T02:11:22;8.77;;;6.20;;
14554;SDS011;7364;50.870;4.722;2023-06-22T02:13:52;8.63;;;6.87;;
14554;SDS011;7364;50.870;4.722;2023-06-22T02:16:22;8.50;;;6.90;;
14554;SDS011;7364;50.870;4.722;2023-06-22T02:18:50;9.27;;;6.70;;
14554;SDS011;7364;50.870;4.722;2023-06-22T02:21:18;9.23;;;6.60;;
14554;SDS011;7364;50.870;4.722;2023-06-22T02:23:45;8.17;;;6.37;;
14554;SDS011;7364;50.870;4.722;2023-06-22T02:26:13;8.07;;;6.10;;
14554;SDS011;7364;50.870;4.722;2023-06-22T02:28:44;9.43;;;6.20;;
14554;SDS011;7364;50.870;4.722;2023-06-22T02:31:12;7.90;;;6.50;;
14554;SDS011;7364;50.870;4.722;2023-06-22T02:33:42;11.43;;;6.67;;
14554;SDS011;7364;50.870;4.722;2023-06-22T02:36:10;7.93;;;6.93;;
14554;SDS011;7364;50.870;4.722;2023-06-22T02:38:38;8.83;;;6.03;;
14554;SDS011;7364;50.870;4.722;2023-06-22T02:41:14;9.13;;;6.20;;
14554;SDS011;7364;50.870;4.722;2023-06-22T02:43:43;7.33;;;5.70;;
14554;SDS011;7364;50.870;4.722;2023-06-22T02:46:11;7.73;;;5.67;;
14554;SDS011;7364;50.870;4.722;2023-06-22T02:48:39;7.60;;;6.60;;
14554;SDS011;7364;50.870;4.722;2023-06-22T02:51:08;9.07;;;7.30;;
14554;SDS011;7364;50.870;4.722;2023-06-22T02:53:36;8.47;;;7.30;;
14554;SDS011;7364;50.870;4.722;2023-06-22T02:56:04;8.13;;;6.90;;
14554;SDS011;7364;50.870;4.722;2023-06-22T02:58:31;8.23;;;7.43;;
14554;SDS011;7364;50.870;4.722;2023-06-22T03:01:04;8.60;;;7.03;;
14554;SDS011;7364;50.870;4.722;2023-06-22T03:03:31;8.47;;;7.00;;
14554;SDS011;7364;50.870;4.722;2023-06-22T03:06:01;7.53;;;6.60;;
14554;SDS011;7364;50.870;4.722;2023-06-22T03:08:28;8.67;;;6.27;;
14554;SDS011;7364;50.870;4.722;2023-06-22T03:10:56;7.80;;;7.00;;
14554;SDS011;7364;50.870;4.722;2023-06-22T03:13:23;8.17;;;7.37;;
14554;SDS011;7364;50.870;4.722;2023-06-22T03:15:50;7.93;;;7.13;;
14554;SDS011;7364;50.870;4.722;2023-06-22T03:18:18;8.17;;;6.77;;
14554;SDS011;7364;50.870;4.722;2023-06-22T03:20:47;7.00;;;6.23;;
14554;SDS011;7364;50.870;4.722;2023-06-22T03:23:16;8.93;;;7.00;;
14554;SDS011;7364;50.870;4.722;2023-06-22T03:25:43;7.90;;;7.00;;
14554;SDS011;7364;50.870;4.722;2023-06-22T03:28:11;10.93;;;7.20;;
14554;SDS011;7364;50.870;4.722;2023-06-22T03:30:38;7.83;;;6.30;;
14554;SDS011;7364;50.870;4.722;2023-06-22T03:33:05;8.17;;;7.33;;
14554;SDS011;7364;50.870;4.722;2023-06-22T03:35:33;8.43;;;7.20;;
14554;SDS011;7364;50.870;4.722;2023-06-22T03:38:00;7.83;;;6.93;;
14554;SDS011;7364;50.870;4.722;2023-06-22T03:40:29;7.83;;;6.50;;
14554;SDS011;7364;50.870;4.722;2023-06-22T03:42:56;9.87;;;7.70;;
14554;SDS011;7364;50.870;4.722;2023-06-22T03:45:24;8.37;;;7.00;;
14554;SDS011;7364;50.870;4.722;2023-06-22T03:47:51;9.60;;;7.57;;
14554;SDS011;7364;50.870;4.722;2023-06-22T03:50:18;12.43;;;8.50;;
14554;SDS011;7364;50.870;4.722;2023-06-22T03:52:46;9.20;;;6.97;;
14554;SDS011;7364;50.870;4.722;2023-06-22T03:55:13;9.07;;;7.83;;
14554;SDS011;7364;50.870;4.722;2023-06-22T03:57:42;9.33;;;7.93;;
14554;SDS011;7364;50.870;4.722;2023-06-22T04:00:10;9.40;;;7.73;;
14554;SDS011;7364;50.870;4.722;2023-06-22T04:02:38;11.13;;;9.53;;
14554;SDS011;7364;50.870;4.722;2023-06-22T04:05:06;9.17;;;8.27;;
14554;SDS011;7364;50.870;4.722;2023-06-22T04:07:35;10.17;;;9.07;;
14554;SDS011;7364;50.870;4.722;2023-06-22T04:10:03;8.83;;;7.93;;
14554;SDS011;7364;50.870;4.722;2023-06-22T04:12:31;12.83;;;8.93;;
14554;SDS011;7364;50.870;4.722;2023-06-22T04:15:00;10.27;;;7.43;;
14554;SDS011;7364;50.870;4.722;2023-06-22T04:17:27;12.27;;;7.90;;
14554;SDS011;7364;50.870;4.722;2023-06-22T04:19:55;9.67;;;8.60;;
14554;SDS011;7364;50.870;4.722;2023-06-22T04:22:22;10.13;;;7.60;;
14554;SDS011;7364;50.870;4.722;2023-06-22T04:24:49;10.27;;;8.67;;
14554;SDS011;7364;50.870;4.722;2023-06-22T04:27:18;8.90;;;7.80;;
14554;SDS011;7364;50.870;4.722;2023-06-22T04:29:48;9.27;;;7.40;;
14554;SDS011;7364;50.870;4.722;2023-06-22T04:32:18;10.20;;;9.20;;
14554;SDS011;7364;50.870;4.722;2023-06-22T04:34:45;12.37;;;9.47;;
14554;SDS011;7364;50.870;4.722;2023-06-22T04:37:12;16.23;;;9.87;;
14554;SDS011;7364;50.870;4.722;2023-06-22T04:39:41;10.13;;;9.03;;
14554;SDS011;7364;50.870;4.722;2023-06-22T04:42:08;14.80;;;10.10;;
14554;SDS011;7364;50.870;4.722;2023-06-22T04:44:36;11.07;;;8.80;;
14554;SDS011;7364;50.870;4.722;2023-06-22T04:47:05;9.67;;;8.50;;
14554;SDS011;7364;50.870;4.722;2023-06-22T04:49:35;11.83;;;9.53;;
14554;SDS011;7364;50.870;4.722;2023-06-22T04:52:03;9.87;;;8.83;;
14554;SDS011;7364;50.870;4.722;2023-06-22T04:54:31;13.63;;;9.20;;
14554;SDS011;7364;50.870;4.722;2023-06-22T04:56:59;12.43;;;10.27;;
14554;SDS011;7364;50.870;4.722;2023-06-22T04:59:27;14.53;;;11.00;;
14554;SDS011;7364;50.870;4.722;2023-06-22T05:01:56;14.20;;;9.53;;
14554;SDS011;7364;50.870;4.722;2023-06-22T05:04:24;12.20;;;10.80;;
14554;SDS011;7364;50.870;4.722;2023-06-22T05:06:54;12.67;;;9.50;;
14554;SDS011;7364;50.870;4.722;2023-06-22T05:09:21;11.93;;;10.70;;
14554;SDS011;7364;50.870;4.722;2023-06-22T05:11:50;14.20;;;11.30;;
14554;SDS011;7364;50.870;4.722;2023-06-22T05:14:17;12.60;;;9.93;;
14554;SDS011;7364;50.870;4.722;2023-06-22T05:16:45;12.47;;;10.37;;
14554;SDS011;7364;50.870;4.722;2023-06-22T05:19:12;12.23;;;10.63;;
14554;SDS011;7364;50.870;4.722;2023-06-22T05:21:40;11.20;;;10.07;;
14554;SDS011;7364;50.870;4.722;2023-06-22T05:24:09;13.13;;;10.47;;
14554;SDS011;7364;50.870;4.722;2023-06-22T05:26:36;12.27;;;10.57;;
14554;SDS011;7364;50.870;4.722;2023-06-22T05:29:07;13.30;;;11.97;;
14554;SDS011;7364;50.870;4.722;2023-06-22T05:31:34;12.13;;;10.83;;
14554;SDS011;7364;50.870;4.722;2023-06-22T05:34:02;14.73;;;11.67;;
14554;SDS011;7364;50.870;4.722;2023-06-22T05:36:29;12.87;;;10.80;;
14554;SDS011;7364;50.870;4.722;2023-06-22T05:38:56;13.37;;;12.00;;
14554;SDS011;7364;50.870;4.722;2023-06-22T05:41:25;13.13;;;10.10;;
14554;SDS011;7364;50.870;4.722;2023-06-22T05:43:53;13.20;;;10.53;;
14554;SDS011;7364;50.870;4.722;2023-06-22T05:46:20;13.00;;;9.67;;
14554;SDS011;7364;50.870;4.722;2023-06-22T05:48:47;10.83;;;9.73;;
14554;SDS011;7364;50.870;4.722;2023-06-22T05:51:15;12.13;;;10.83;;
14554;SDS011;7364;50.870;4.722;2023-06-22T05:53:42;12.33;;;9.93;;
14554;SDS011;7364;50.870;4.722;2023-06-22T05:56:14;10.60;;;9.40;;
14554;SDS011;7364;50.870;4.722;2023-06-22T05:58:43;11.70;;;10.33;;
14554;SDS011;7364;50.870;4.722;2023-06-22T06:01:11;11.47;;;10.20;;
14554;SDS011;7364;50.870;4.722;2023-06-22T06:03:41;11.97;;;10.23;;
14554;SDS011;7364;50.870;4.722;2023-06-22T06:06:09;16.70;;;11.17;;
14554;SDS011;7364;50.870;4.722;2023-06-22T06:08:36;13.33;;;11.17;;
14554;SDS011;7364;50.870;4.722;2023-06-22T06:11:04;13.80;;;10.43;;
14554;SDS011;7364;50.870;4.722;2023-06-22T06:13:33;11.47;;;10.27;;
14554;SDS011;7364;50.870;4.722;2023-06-22T06:16:02;12.70;;;11.03;;
14554;SDS011;7364;50.870;4.722;2023-06-22T06:18:30;12.07;;;10.47;;
14554;SDS011;7364;50.870;4.722;2023-06-22T06:20:57;16.50;;;11.47;;
14554;SDS011;7364;50.870;4.722;2023-06-22T06:23:25;12.57;;;11.27;;
14554;SDS011;7364;50.870;4.722;2023-06-22T06:25:52;13.00;;;11.30;;
14554;SDS011;7364;50.870;4.722;2023-06-22T06:28:19;13.73;;;11.87;;
14554;SDS011;7364;50.870;4.722;2023-06-22T06:30:47;11.93;;;9.70;;
14554;SDS011;7364;50.870;4.722;2023-06-22T06:33:15;12.80;;;10.57;;
14554;SDS011;7364;50.870;4.722;2023-06-22T06:35:43;13.60;;;10.70;;
14554;SDS011;7364;50.870;4.722;2023-06-22T06:38:10;11.50;;;9.77;;
14554;SDS011;7364;50.870;4.722;2023-06-22T06:40:38;13.27;;;10.47;;
14554;SDS011;7364;50.870;4.722;2023-06-22T06:43:05;12.40;;;10.53;;
14554;SDS011;7364;50.870;4.722;2023-06-22T06:45:33;13.00;;;10.83;;
14554;SDS011;7364;50.870;4.722;2023-06-22T06:48:00;11.97;;;10.67;;
14554;SDS011;7364;50.870;4.722;2023-06-22T06:50:29;11.00;;;9.90;;
14554;SDS011;7364;50.870;4.722;2023-06-22T06:52:56;11.93;;;10.60;;
14554;SDS011;7364;50.870;4.722;2023-06-22T06:55:24;11.50;;;10.30;;
14554;SDS011;7364;50.870;4.722;2023-06-22T06:57:51;13.37;;;11.60;;
14554;SDS011;7364;50.870;4.722;2023-06-22T07:00:19;16.23;;;10.77;;
14554;SDS011;7364;50.870;4.722;2023-06-22T07:02:47;13.63;;;11.77;;
14554;SDS011;7364;50.870;4.722;2023-06-22T07:05:14;13.90;;;11.93;;
14554;SDS011;7364;50.870;4.722;2023-06-22T07:07:43;13.07;;;10.73;;
14554;SDS011;7364;50.870;4.722;2023-06-22T07:10:10;16.43;;;10.87;;
14554;SDS011;7364;50.870;4.722;2023-06-22T07:12:38;12.47;;;10.87;;
14554;SDS011;7364;50.870;4.722;2023-06-22T07:15:06;12.57;;;11.27;;
14554;SDS011;7364;50.870;4.722;2023-06-22T07:17:34;15.93;;;10.87;;
14554;SDS011;7364;50.870;4.722;2023-06-22T07:20:02;15.33;;;10.00;;
14554;SDS011;7364;50.870;4.722;2023-06-22T07:22:35;12.50;;;9.13;;
14554;SDS011;7364;50.870;4.722;2023-06-22T07:25:04;9.03;;;8.03;;
14554;SDS011;7364;50.870;4.722;2023-06-22T07:27:35;10.53;;;8.00;;
14554;SDS011;7364;50.870;4.722;2023-06-22T07:30:05;9.30;;;7.90;;
14554;SDS011;7364;50.870;4.722;2023-06-22T07:32:33;15.17;;;7.40;;
14554;SDS011;7364;50.870;4.722;2023-06-22T07:35:00;10.10;;;8.13;;
14554;SDS011;7364;50.870;4.722;2023-06-22T07:37:30;9.37;;;7.53;;
14554;SDS011;7364;50.870;4.722;2023-06-22T07:39:58;11.20;;;8.23;;
14554;SDS011;7364;50.870;4.722;2023-06-22T07:42:27;8.50;;;7.60;;
14554;SDS011;7364;50.870;4.722;2023-06-22T07:44:58;11.83;;;8.83;;
14554;SDS011;7364;50.870;4.722;2023-06-22T07:47:25;9.23;;;6.93;;
14554;SDS011;7364;50.870;4.722;2023-06-22T07:49:53;8.70;;;6.70;;
14554;SDS011;7364;50.870;4.722;2023-06-22T07:52:23;10.07;;;7.23;;
14554;SDS011;7364;50.870;4.722;2023-06-22T07:54:51;11.53;;;7.70;;
14554;SDS011;7364;50.870;4.722;2023-06-22T07:57:19;10.63;;;7.50;;
14554;SDS011;7364;50.870;4.722;2023-06-22T07:59:47;8.83;;;7.03;;
14554;SDS011;7364;50.870;4.722;2023-06-22T08:02:15;9.00;;;6.87;;
14554;SDS011;7364;50.870;4.722;2023-06-22T08:04:42;8.60;;;7.53;;
14554;SDS011;7364;50.870;4.722;2023-06-22T08:07:10;9.87;;;6.80;;
14554;SDS011;7364;50.870;4.722;2023-06-22T08:09:37;8.40;;;6.67;;
14554;SDS011;7364;50.870;4.722;2023-06-22T08:12:05;8.77;;;5.30;;
14554;SDS011;7364;50.870;4.722;2023-06-22T08:14:32;8.23;;;6.43;;
14554;SDS011;7364;50.870;4.722;2023-06-22T08:17:03;9.23;;;7.70;;
14554;SDS011;7364;50.870;4.722;2023-06-22T08:19:31;6.63;;;6.03;;
14554;SDS011;7364;50.870;4.722;2023-06-22T08:21:59;7.43;;;5.57;;
14554;SDS011;7364;50.870;4.722;2023-06-22T08:24:27;7.80;;;5.97;;
14554;SDS011;7364;50.870;4.722;2023-06-22T08:26:55;7.43;;;6.17;;
14554;SDS011;7364;50.870;4.722;2023-06-22T08:29:23;8.90;;;5.90;;
14554;SDS011;7364;50.870;4.722;2023-06-22T08:31:50;8.33;;;6.67;;
14554;SDS011;7364;50.870;4.722;2023-06-22T08:34:19;8.43;;;6.77;;
14554;SDS011;7364;50.870;4.722;2023-06-22T08:36:48;8.17;;;6.10;;
14554;SDS011;7364;50.870;4.722;2023-06-22T08:39:17;8.87;;;6.53;;
14554;SDS011;7364;50.870;4.722;2023-06-22T08:41:44;8.47;;;7.07;;
14554;SDS011;7364;50.870;4.722;2023-06-22T08:44:12;8.77;;;6.30;;
14554;SDS011;7364;50.870;4.722;2023-06-22T08:46:39;8.00;;;6.80;;
14554;SDS011;7364;50.870;4.722;2023-06-22T08:49:07;9.00;;;6.57;;
14554;SDS011;7364;50.870;4.722;2023-06-22T08:51:37;9.13;;;6.63;;
14554;SDS011;7364;50.870;4.722;2023-06-22T08:54:04;8.00;;;6.70;;
14554;SDS011;7364;50.870;4.722;2023-06-22T08:56:31;8.37;;;6.17;;
14554;SDS011;7364;50.870;4.722;2023-06-22T08:59:01;7.93;;;6.63;;
14554;SDS011;7364;50.870;4.722;2023-06-22T09:01:28;7.57;;;5.90;;
14554;SDS011;7364;50.870;4.722;2023-06-22T09:03:56;7.73;;;5.33;;
14554;SDS011;7364;50.870;4.722;2023-06-22T09:06:24;8.30;;;6.07;;
14554;SDS011;7364;50.870;4.722;2023-06-22T09:08:53;5.97;;;5.37;;
14554;SDS011;7364;50.870;4.722;2023-06-22T09:11:20;6.37;;;5.70;;
14554;SDS011;7364;50.870;4.722;2023-06-22T09:13:47;7.00;;;5.70;;
14554;SDS011;7364;50.870;4.722;2023-06-22T09:16:14;8.13;;;6.17;;
14554;SDS011;7364;50.870;4.722;2023-06-22T09:18:42;10.70;;;5.73;;
14554;SDS011;7364;50.870;4.722;2023-06-22T09:21:09;7.37;;;5.73;;
14554;SDS011;7364;50.870;4.722;2023-06-22T09:23:36;8.10;;;5.77;;
14554;SDS011;7364;50.870;4.722;2023-06-22T09:26:06;7.83;;;6.00;;
14554;SDS011;7364;50.870;4.722;2023-06-22T09:28:34;7.30;;;6.47;;
14554;SDS011;7364;50.870;4.722;2023-06-22T09:31:01;6.50;;;5.90;;
14554;SDS011;7364;50.870;4.722;2023-06-22T09:33:28;7.20;;;5.77;;
14554;SDS011;7364;50.870;4.722;2023-06-22T09:35:56;10.17;;;6.23;;
14554;SDS011;7364;50.870;4.722;2023-06-22T09:38:23;7.97;;;6.70;;
14554;SDS011;7364;50.870;4.722;2023-06-22T09:40:50;9.50;;;7.03;;
14554;SDS011;7364;50.870;4.722;2023-06-22T09:43:19;11.27;;;6.73;;
14554;SDS011;7364;50.870;4.722;2023-06-22T09:45:46;9.17;;;7.63;;
14554;SDS011;7364;50.870;4.722;2023-06-22T09:48:13;10.03;;;7.73;;
14554;SDS011;7364;50.870;4.722;2023-06-22T09:50:41;11.47;;;10.27;;
14554;SDS011;7364;50.870;4.722;2023-06-22T09:53:09;11.30;;;9.67;;
14554;SDS011;7364;50.870;4.722;2023-06-22T09:55:36;10.77;;;9.67;;
14554;SDS011;7364;50.870;4.722;2023-06-22T09:58:03;13.83;;;10.40;;
14554;SDS011;7364;50.870;4.722;2023-06-22T10:00:32;12.27;;;10.33;;
14554;SDS011;7364;50.870;4.722;2023-06-22T10:02:59;12.80;;;11.30;;
14554;SDS011;7364;50.870;4.722;2023-06-22T10:05:26;11.13;;;10.03;;
14554;SDS011;7364;50.870;4.722;2023-06-22T10:07:53;14.57;;;11.43;;
14554;SDS011;7364;50.870;4.722;2023-06-22T10:10:22;12.47;;;11.10;;
14554;SDS011;7364;50.870;4.722;2023-06-22T10:12:54;13.87;;;11.67;;
14554;SDS011;7364;50.870;4.722;2023-06-22T10:15:23;13.60;;;12.20;;
14554;SDS011;7364;50.870;4.722;2023-06-22T10:17:53;15.17;;;13.67;;
14554;SDS011;7364;50.870;4.722;2023-06-22T10:20:20;16.17;;;13.57;;
14554;SDS011;7364;50.870;4.722;2023-06-22T10:22:48;16.60;;;13.37;;
14554;SDS011;7364;50.870;4.722;2023-06-22T10:25:16;14.90;;;13.20;;
14554;SDS011;7364;50.870;4.722;2023-06-22T10:27:43;18.17;;;14.20;;
14554;SDS011;7364;50.870;4.722;2023-06-22T10:30:11;18.33;;;14.87;;
14554;SDS011;7364;50.870;4.722;2023-06-22T10:32:40;19.00;;;14.47;;
14554;SDS011;7364;50.870;4.722;2023-06-22T10:35:10;14.90;;;13.27;;
14554;SDS011;7364;50.870;4.722;2023-06-22T10:37:38;18.13;;;14.17;;
14554;SDS011;7364;50.870;4.722;2023-06-22T10:40:08;15.50;;;12.17;;
14554;SDS011;7364;50.870;4.722;2023-06-22T10:42:36;18.23;;;15.80;;
14554;SDS011;7364;50.870;4.722;2023-06-22T10:45:04;15.97;;;13.73;;
14554;SDS011;7364;50.870;4.722;2023-06-22T10:47:31;15.27;;;13.57;;
14554;SDS011;7364;50.870;4.722;2023-06-22T10:49:59;15.77;;;12.77;;
14554;SDS011;7364;50.870;4.722;2023-06-22T10:52:28;17.60;;;14.50;;
14554;SDS011;7364;50.870;4.722;2023-06-22T10:54:55;14.97;;;13.40;;
14554;SDS011;7364;50.870;4.722;2023-06-22T10:57:22;15.17;;;13.57;;
14554;SDS011;7364;50.870;4.722;2023-06-22T10:59:50;17.27;;;15.43;;
14554;SDS011;7364;50.870;4.722;2023-06-22T11:02:18;16.43;;;13.63;;
14554;SDS011;7364;50.870;4.722;2023-06-22T11:04:45;16.37;;;12.70;;
14554;SDS011;7364;50.870;4.722;2023-06-22T11:07:12;14.83;;;13.33;;
14554;SDS011;7364;50.870;4.722;2023-06-22T11:09:44;15.77;;;14.17;;
14554;SDS011;7364;50.870;4.722;2023-06-22T11:12:11;17.23;;;14.20;;
14554;SDS011;7364;50.870;4.722;2023-06-22T11:14:39;17.23;;;14.93;;
14554;SDS011;7364;50.870;4.722;2023-06-22T11:17:06;15.67;;;13.83;;
14554;SDS011;7364;50.870;4.722;2023-06-22T11:19:33;16.27;;;14.60;;
14554;SDS011;7364;50.870;4.722;2023-06-22T11:22:01;17.97;;;15.63;;
14554;SDS011;7364;50.870;4.722;2023-06-22T11:24:29;15.17;;;13.73;;
14554;SDS011;7364;50.870;4.722;2023-06-22T11:26:58;18.17;;;15.97;;
14554;SDS011;7364;50.870;4.722;2023-06-22T11:29:25;17.03;;;15.03;;
14554;SDS011;7364;50.870;4.722;2023-06-22T11:31:52;16.30;;;14.57;;
14554;SDS011;7364;50.870;4.722;2023-06-22T11:34:20;17.00;;;15.20;;
14554;SDS011;7364;50.870;4.722;2023-06-22T11:36:47;15.77;;;14.23;;
14554;SDS011;7364;50.870;4.722;2023-06-22T11:39:14;18.73;;;16.83;;
14554;SDS011;7364;50.870;4.722;2023-06-22T11:41:42;18.60;;;15.90;;
14554;SDS011;7364;50.870;4.722;2023-06-22T11:44:11;17.80;;;16.10;;
14554;SDS011;7364;50.870;4.722;2023-06-22T11:46:38;18.43;;;16.67;;
14554;SDS011;7364;50.870;4.722;2023-06-22T11:49:05;18.27;;;16.53;;
14554;SDS011;7364;50.870;4.722;2023-06-22T11:51:32;18.63;;;16.73;;
14554;SDS011;7364;50.870;4.722;2023-06-22T11:53:59;18.77;;;16.27;;
14554;SDS011;7364;50.870;4.722;2023-06-22T11:56:27;18.00;;;15.63;;
14554;SDS011;7364;50.870;4.722;2023-06-22T11:58:55;19.00;;;17.23;;
14554;SDS011;7364;50.870;4.722;2023-06-22T12:01:23;22.83;;;17.00;;
14554;SDS011;7364;50.870;4.722;2023-06-22T12:03:50;20.70;;;18.67;;
14554;SDS011;7364;50.870;4.722;2023-06-22T12:06:18;20.33;;;18.33;;
14554;SDS011;7364;50.870;4.722;2023-06-22T12:08:45;20.07;;;18.07;;
14554;SDS011;7364;50.870;4.722;2023-06-22T12:11:12;21.20;;;18.83;;
14554;SDS011;7364;50.870;4.722;2023-06-22T12:13:39;21.27;;;19.20;;
14554;SDS011;7364;50.870;4.722;2023-06-22T12:16:06;22.10;;;18.80;;
14554;SDS011;7364;50.870;4.722;2023-06-22T12:18:35;20.67;;;18.60;;
14554;SDS011;7364;50.870;4.722;2023-06-22T12:21:02;21.57;;;19.27;;
14554;SDS011;7364;50.870;4.722;2023-06-22T12:23:30;21.77;;;19.43;;
14554;SDS011;7364;50.870;4.722;2023-06-22T12:25:57;22.70;;;19.87;;
14554;SDS011;7364;50.870;4.722;2023-06-22T12:28:25;24.23;;;20.77;;
14554;SDS011;7364;50.870;4.722;2023-06-22T12:30:52;22.73;;;19.00;;
14554;SDS011;7364;50.870;4.722;2023-06-22T12:33:19;24.77;;;22.00;;
14554;SDS011;7364;50.870;4.722;2023-06-22T12:35:48;22.50;;;20.20;;
14554;SDS011;7364;50.870;4.722;2023-06-22T12:38:15;25.40;;;22.90;;
14554;SDS011;7364;50.870;4.722;2023-06-22T12:40:42;22.80;;;20.60;;
14554;SDS011;7364;50.870;4.722;2023-06-22T12:43:12;23.90;;;19.37;;
14554;SDS011;7364;50.870;4.722;2023-06-22T12:45:39;28.33;;;23.17;;
14554;SDS011;7364;50.870;4.722;2023-06-22T12:48:06;28.37;;;23.37;;
14554;SDS011;7364;50.870;4.722;2023-06-22T12:50:34;26.37;;;23.33;;
14554;SDS011;7364;50.870;4.722;2023-06-22T12:53:02;23.73;;;21.37;;
14554;SDS011;7364;50.870;4.722;2023-06-22T12:55:31;25.93;;;23.53;;
14554;SDS011;7364;50.870;4.722;2023-06-22T12:57:58;23.77;;;21.37;;
14554;SDS011;7364;50.870;4.722;2023-06-22T13:00:25;24.40;;;21.90;;
14554;SDS011;7364;50.870;4.722;2023-06-22T13:02:56;25.60;;;22.93;;
14554;SDS011;7364;50.870;4.722;2023-06-22T13:05:23;24.70;;;22.10;;
14554;SDS011;7364;50.870;4.722;2023-06-22T13:07:50;25.43;;;22.87;;
14554;SDS011;7364;50.870;4.722;2023-06-22T13:10:19;24.60;;;21.63;;
14554;SDS011;7364;50.870;4.722;2023-06-22T13:12:46;27.40;;;22.53;;
14554;SDS011;7364;50.870;4.722;2023-06-22T13:15:14;25.90;;;23.40;;
14554;SDS011;7364;50.870;4.722;2023-06-22T13:17:41;24.13;;;21.33;;
14554;SDS011;7364;50.870;4.722;2023-06-22T13:20:08;24.97;;;21.90;;
14554;SDS011;7364;50.870;4.722;2023-06-22T13:22:36;23.83;;;21.27;;
14554;SDS011;7364;50.870;4.722;2023-06-22T13:25:08;23.83;;;21.30;;
14554;SDS011;7364;50.870;4.722;2023-06-22T13:27:38;25.93;;;22.97;;
14554;SDS011;7364;50.870;4.722;2023-06-22T13:30:06;23.50;;;21.07;;
14554;SDS011;7364;50.870;4.722;2023-06-22T13:32:34;26.70;;;23.90;;
14554;SDS011;7364;50.870;4.722;2023-06-22T13:35:03;25.43;;;23.03;;
14554;SDS011;7364;50.870;4.722;2023-06-22T13:37:33;23.23;;;20.60;;
14554;SDS011;7364;50.870;4.722;2023-06-22T13:40:00;26.87;;;24.07;;
14554;SDS011;7364;50.870;4.722;2023-06-22T13:42:30;28.23;;;25.20;;
14554;SDS011;7364;50.870;4.722;2023-06-22T13:44:59;26.50;;;23.63;;
14554;SDS011;7364;50.870;4.722;2023-06-22T13:47:26;25.07;;;22.30;;
14554;SDS011;7364;50.870;4.722;2023-06-22T13:49:54;23.90;;;21.57;;
14554;SDS011;7364;50.870;4.722;2023-06-22T13:52:21;25.40;;;22.70;;
14554;SDS011;7364;50.870;4.722;2023-06-22T13:54:48;26.77;;;24.07;;
14554;SDS011;7364;50.870;4.722;2023-06-22T13:57:15;28.53;;;25.73;;
14554;SDS011;7364;50.870;4.722;2023-06-22T13:59:42;26.43;;;23.73;;
14554;SDS011;7364;50.870;4.722;2023-06-22T14:02:11;25.57;;;22.97;;
14554;SDS011;7364;50.870;4.722;2023-06-22T14:04:38;26.93;;;22.57;;
14554;SDS011;7364;50.870;4.722;2023-06-22T14:07:06;27.63;;;24.67;;
14554;SDS011;7364;50.870;4.722;2023-06-22T14:09:33;28.37;;;24.53;;
14554;SDS011;7364;50.870;4.722;2023-06-22T14:12:02;23.97;;;21.73;;
14554;SDS011;7364;50.870;4.722;2023-06-22T14:14:31;23.70;;;21.10;;
14554;SDS011;7364;50.870;4.722;2023-06-22T14:16:58;25.00;;;22.40;;
14554;SDS011;7364;50.870;4.722;2023-06-22T14:19:26;24.60;;;22.27;;
14554;SDS011;7364;50.870;4.722;2023-06-22T14:21:54;24.60;;;21.93;;
14554;SDS011;7364;50.870;4.722;2023-06-22T14:24:22;24.30;;;21.57;;
14554;SDS011;7364;50.870;4.722;2023-06-22T14:26:49;22.83;;;20.43;;
14554;SDS011;7364;50.870;4.722;2023-06-22T14:29:16;22.47;;;20.23;;
14554;SDS011;7364;50.870;4.722;2023-06-22T14:31:44;23.70;;;21.27;;
14554;SDS011;7364;50.870;4.722;2023-06-22T14:34:12;22.77;;;20.30;;
14554;SDS011;7364;50.870;4.722;2023-06-22T14:36:41;23.07;;;20.57;;
14554;SDS011;7364;50.870;4.722;2023-06-22T14:39:08;21.90;;;19.80;;
14554;SDS011;7364;50.870;4.722;2023-06-22T14:41:36;22.27;;;20.03;;
14554;SDS011;7364;50.870;4.722;2023-06-22T14:44:03;21.10;;;19.07;;
14554;SDS011;7364;50.870;4.722;2023-06-22T14:46:30;24.13;;;19.40;;
14554;SDS011;7364;50.870;4.722;2023-06-22T14:48:57;22.03;;;19.83;;
14554;SDS011;7364;50.870;4.722;2023-06-22T14:51:25;24.27;;;21.83;;